Time;durP1;ratioP1;P1;durP2;ratioP2;P2;SDS_P1;SDS_P2;PMS_P1;PMS_P2;Temp;Humidity;BMP_temperature;BMP_pressure;BME280_temperature;BME280_humidity;BME280_pressure;Samples;Min_cycle;Max_cycle;Signal;HPM_P1;HPM_P2
2024/04/11 00:01:18;;;;;;;1.08;0.95;;;;;;;;;;5433199;26;20270;-41
2024/04/11 00:03:44;;;;;;;1.05;0.98;;;;;;;;;;5431316;26;20687;-41
2024/04/11 00:06:10;;;;;;;1.83;1.20;;;;;;;;;;5433974;26;20258;-41
2024/04/11 00:08:36;;;;;;;1.42;1.00;;;;;;;;;;5434460;26;20602;-41
2024/04/11 00:11:02;;;;;;;1.33;1.15;;;;;;;;;;5440545;26;20227;-42
2024/04/11 00:13:28;;;;;;;1.20;0.90;;;;;;;;;;5429457;26;20233;-42
2024/04/11 00:15:55;;;;;;;3.05;1.00;;;;;;;;;;5437441;26;20224;-42
2024/04/11 00:18:23;;;;;;;1.08;0.90;;;;;;;;;;5423819;26;20250;-42
2024/04/11 00:20:49;;;;;;;1.35;1.25;;;;;;;;;;5430248;26;20259;-41
2024/04/11 00:23:15;;;;;;;2.13;0.77;;;;;;;;;;5432692;26;20228;-42
2024/04/11 00:25:42;;;;;;;1.10;1.00;;;;;;;;;;5447520;26;20235;-42
2024/04/11 00:28:09;;;;;;;1.70;1.05;;;;;;;;;;5428989;26;20224;-42
2024/04/11 00:30:36;;;;;;;1.13;1.02;;;;;;;;;;5434557;26;20638;-42
2024/04/11 00:33:02;;;;;;;0.88;0.88;;;;;;;;;;5445320;26;20276;-42
2024/04/11 00:35:28;;;;;;;0.93;0.82;;;;;;;;;;5436945;26;20231;-42
2024/04/11 00:37:55;;;;;;;0.98;0.90;;;;;;;;;;5446647;26;20275;-42
2024/04/11 00:40:21;;;;;;;0.90;0.90;;;;;;;;;;5429422;26;20225;-42
2024/04/11 00:42:48;;;;;;;0.95;0.93;;;;;;;;;;5443935;26;20372;-41
2024/04/11 00:45:14;;;;;;;1.42;1.05;;;;;;;;;;5443781;26;20287;-42
2024/04/11 00:47:40;;;;;;;1.23;0.80;;;;;;;;;;5441771;26;20236;-42
2024/04/11 00:50:07;;;;;;;2.60;1.10;;;;;;;;;;5444734;26;20274;-41
2024/04/11 00:52:33;;;;;;;1.20;0.90;;;;;;;;;;5450781;26;20599;-42
2024/04/11 00:54:59;;;;;;;1.45;1.00;;;;;;;;;;5438711;26;20225;-41
2024/04/11 00:57:26;;;;;;;0.80;0.80;;;;;;;;;;5441179;26;20326;-42
2024/04/11 00:59:53;;;;;;;1.00;0.90;;;;;;;;;;5435978;26;20691;-42
2024/04/11 01:02:19;;;;;;;1.83;1.25;;;;;;;;;;5437454;26;20220;-41
2024/04/11 01:04:45;;;;;;;1.05;0.80;;;;;;;;;;5449674;26;20309;-42
2024/04/11 01:07:12;;;;;;;1.00;0.90;;;;;;;;;;5444268;26;20510;-41
2024/04/11 01:09:39;;;;;;;1.25;1.02;;;;;;;;;;5428359;26;20268;-42
2024/04/11 01:12:05;;;;;;;1.63;0.80;;;;;;;;;;5430579;26;20320;-41
2024/04/11 01:14:33;;;;;;;0.85;0.80;;;;;;;;;;5443345;26;20306;-42
2024/04/11 01:16:59;;;;;;;1.10;0.80;;;;;;;;;;5438745;26;20227;-42
2024/04/11 01:19:25;;;;;;;0.93;0.88;;;;;;;;;;5440690;26;20266;-42
2024/04/11 01:21:51;;;;;;;0.82;0.82;;;;;;;;;;5439395;26;20220;-42
2024/04/11 01:24:17;;;;;;;1.00;0.85;;;;;;;;;;5441767;26;20224;-42
2024/04/11 01:26:43;;;;;;;0.85;0.80;;;;;;;;;;5430502;26;20220;-42
2024/04/11 01:29:10;;;;;;;0.70;0.70;;;;;;;;;;5429969;26;20216;-41
2024/04/11 01:31:37;;;;;;;0.80;0.63;;;;;;;;;;5434524;26;20693;-42
2024/04/11 01:34:04;;;;;;;0.73;0.73;;;;;;;;;;5419391;26;20359;-41
2024/04/11 01:36:30;;;;;;;1.25;1.02;;;;;;;;;;5430461;26;20227;-42
2024/04/11 01:38:56;;;;;;;0.68;0.68;;;;;;;;;;5424996;26;20311;-42
2024/04/11 01:41:23;;;;;;;1.05;0.90;;;;;;;;;;5433782;26;20622;-42
2024/04/11 01:43:49;;;;;;;1.13;1.00;;;;;;;;;;5428933;26;20248;-42
2024/04/11 01:46:18;;;;;;;0.88;0.88;;;;;;;;;;5439916;26;20786;-41
2024/04/11 01:48:44;;;;;;;1.02;0.80;;;;;;;;;;5435866;26;20240;-42
2024/04/11 01:51:10;;;;;;;1.10;1.00;;;;;;;;;;5448178;26;20332;-42
2024/04/11 01:53:39;;;;;;;0.98;0.88;;;;;;;;;;5446298;26;20220;-42
2024/04/11 01:56:06;;;;;;;2.10;0.95;;;;;;;;;;5434953;26;20265;-41
2024/04/11 01:58:31;;;;;;;1.45;0.95;;;;;;;;;;5436152;26;20446;-42
2024/04/11 02:01:09;;;;;;;0.80;0.70;;;;;;;;;;5422869;26;20224;-41
2024/04/11 02:03:36;;;;;;;0.80;0.75;;;;;;;;;;5438547;26;20628;-42
2024/04/11 02:06:03;;;;;;;2.58;0.80;;;;;;;;;;5429416;26;20903;-42
2024/04/11 02:08:30;;;;;;;1.52;0.90;;;;;;;;;;5429785;26;20275;-41
2024/04/11 02:10:56;;;;;;;1.45;0.70;;;;;;;;;;5434127;26;20240;-42
2024/04/11 02:13:22;;;;;;;0.93;0.80;;;;;;;;;;5438614;26;20514;-41
2024/04/11 02:15:47;;;;;;;1.10;0.98;;;;;;;;;;5434936;26;20220;-41
2024/04/11 02:18:13;;;;;;;2.22;0.80;;;;;;;;;;5418650;26;20459;-42
2024/04/11 02:20:39;;;;;;;1.15;0.90;;;;;;;;;;5432624;26;20266;-41
2024/04/11 02:23:05;;;;;;;0.70;0.70;;;;;;;;;;5419695;26;20295;-42
2024/04/11 02:25:31;;;;;;;1.48;0.90;;;;;;;;;;5441877;26;20228;-42
2024/04/11 02:27:58;;;;;;;0.70;0.70;;;;;;;;;;5443141;26;20219;-42
2024/04/11 02:30:24;;;;;;;0.80;0.80;;;;;;;;;;5438726;26;20227;-41
2024/04/11 02:32:49;;;;;;;1.05;0.90;;;;;;;;;;5437413;26;20316;-42
2024/04/11 02:35:15;;;;;;;1.20;1.00;;;;;;;;;;5443016;26;20220;-42
2024/04/11 02:37:41;;;;;;;0.93;0.80;;;;;;;;;;5422793;26;20503;-42
2024/04/11 02:40:08;;;;;;;1.17;0.90;;;;;;;;;;5453515;26;20227;-42
2024/04/11 02:42:40;;;;;;;1.15;1.05;;;;;;;;;;5430968;26;20225;-41
2024/04/11 02:45:07;;;;;;;1.13;0.90;;;;;;;;;;5435079;26;20216;-41
2024/04/11 02:47:33;;;;;;;0.90;0.90;;;;;;;;;;5438075;26;20232;-41
2024/04/11 02:49:59;;;;;;;0.95;0.75;;;;;;;;;;5421969;26;20267;-41
2024/04/11 02:52:25;;;;;;;2.13;1.00;;;;;;;;;;5441232;26;20220;-42
2024/04/11 02:54:51;;;;;;;0.60;0.60;;;;;;;;;;5450003;26;20286;-41
2024/04/11 02:57:17;;;;;;;0.70;0.70;;;;;;;;;;5438742;26;20291;-42
2024/04/11 02:59:44;;;;;;;0.98;0.80;;;;;;;;;;5436036;26;20273;-42
2024/04/11 03:02:11;;;;;;;0.90;0.65;;;;;;;;;;5430041;26;20601;-42
2024/04/11 03:04:37;;;;;;;0.70;0.70;;;;;;;;;;5445051;26;20437;-42
2024/04/11 03:07:03;;;;;;;1.42;0.90;;;;;;;;;;5437735;26;20220;-42
2024/04/11 03:09:29;;;;;;;0.98;0.85;;;;;;;;;;5448762;26;20594;-42
2024/04/11 03:11:55;;;;;;;1.10;0.85;;;;;;;;;;5442326;26;20239;-42
2024/04/11 03:14:21;;;;;;;0.77;0.77;;;;;;;;;;5437193;26;20289;-42
2024/04/11 03:16:46;;;;;;;1.05;0.90;;;;;;;;;;5429055;26;20584;-42
2024/04/11 03:19:12;;;;;;;0.80;0.80;;;;;;;;;;5435468;26;20219;-41
2024/04/11 03:21:38;;;;;;;0.70;0.70;;;;;;;;;;5419886;26;20236;-41
2024/04/11 03:24:04;;;;;;;1.02;0.80;;;;;;;;;;5427951;26;20240;-41
2024/04/11 03:26:30;;;;;;;0.70;0.70;;;;;;;;;;5419778;26;20232;-41
2024/04/11 03:28:56;;;;;;;0.88;0.70;;;;;;;;;;5419943;26;20236;-42
2024/04/11 03:31:22;;;;;;;1.05;0.90;;;;;;;;;;5448764;26;20228;-41
2024/04/11 03:33:50;;;;;;;1.20;0.90;;;;;;;;;;5420977;26;20228;-42
2024/04/11 03:36:16;;;;;;;1.05;0.90;;;;;;;;;;5419892;26;20224;-41
2024/04/11 03:38:42;;;;;;;0.73;0.73;;;;;;;;;;5423985;26;20227;-42
2024/04/11 03:41:09;;;;;;;2.10;0.70;;;;;;;;;;5436545;26;21173;-42
2024/04/11 03:43:36;;;;;;;0.90;0.90;;;;;;;;;;5451088;26;20721;-42
2024/04/11 03:46:09;;;;;;;0.80;0.80;;;;;;;;;;5435548;26;20494;-41
2024/04/11 03:48:36;;;;;;;1.25;0.85;;;;;;;;;;5435656;26;20291;-42
2024/04/11 03:51:08;;;;;;;0.80;0.80;;;;;;;;;;5433604;26;20244;-42
2024/04/11 03:53:34;;;;;;;2.08;1.00;;;;;;;;;;5430220;26;20224;-42
2024/04/11 03:56:00;;;;;;;0.73;0.73;;;;;;;;;;5437472;26;20269;-42
2024/04/11 03:58:26;;;;;;;1.42;0.70;;;;;;;;;;5427253;26;20473;-42
2024/04/11 04:00:52;;;;;;;0.82;0.82;;;;;;;;;;5419735;26;20228;-41
2024/04/11 04:03:17;;;;;;;1.17;0.88;;;;;;;;;;5420131;26;20221;-41
2024/04/11 04:05:43;;;;;;;0.80;0.80;;;;;;;;;;5431032;26;20232;-41
2024/04/11 04:08:09;;;;;;;1.10;1.00;;;;;;;;;;5423682;26;20327;-41
2024/04/11 04:10:35;;;;;;;0.93;0.65;;;;;;;;;;5421699;26;20229;-42
2024/04/11 04:13:03;;;;;;;1.27;0.70;;;;;;;;;;5423011;26;20632;-42
2024/04/11 04:15:30;;;;;;;1.10;0.73;;;;;;;;;;5425710;26;20232;-42
2024/04/11 04:17:57;;;;;;;2.63;1.20;;;;;;;;;;5426910;26;20225;-42
2024/04/11 04:20:23;;;;;;;3.42;1.27;;;;;;;;;;5420580;26;20623;-38
2024/04/11 04:22:49;;;;;;;10.73;2.13;;;;;;;;;;5418292;26;20275;-44
2024/04/11 04:25:16;;;;;;;4.90;1.20;;;;;;;;;;5427174;26;20224;-45
2024/04/11 04:27:44;;;;;;;4.13;1.35;;;;;;;;;;5421396;26;20270;-53
2024/04/11 04:30:12;;;;;;;6.68;1.67;;;;;;;;;;5432586;26;20633;-44
2024/04/11 04:32:38;;;;;;;5.95;1.63;;;;;;;;;;5433688;26;20223;-46
2024/04/11 04:35:09;;;;;;;6.63;1.90;;;;;;;;;;5423461;26;20589;-41
2024/04/11 04:37:35;;;;;;;9.02;2.17;;;;;;;;;;5427551;26;20273;-44
2024/04/11 04:40:01;;;;;;;5.50;2.20;;;;;;;;;;5421430;26;20228;-46
2024/04/11 04:42:28;;;;;;;5.30;1.70;;;;;;;;;;5434538;26;20305;-38
2024/04/11 04:44:54;;;;;;;3.20;1.90;;;;;;;;;;5432502;26;20231;-39
2024/04/11 04:47:28;;;;;;;6.70;1.60;;;;;;;;;;5427895;26;20239;-38
2024/04/11 04:49:55;;;;;;;3.50;1.67;;;;;;;;;;5436767;26;20220;-39
2024/04/11 04:52:24;;;;;;;4.88;1.85;;;;;;;;;;5443672;26;20275;-38
2024/04/11 04:54:51;;;;;;;6.07;1.58;;;;;;;;;;5425483;26;20229;-38
2024/04/11 04:57:16;;;;;;;3.70;1.30;;;;;;;;;;5435964;26;20267;-38
2024/04/11 04:59:42;;;;;;;7.05;1.60;;;;;;;;;;5428750;26;20235;-38
2024/04/11 05:02:09;;;;;;;3.65;1.33;;;;;;;;;;5425455;26;20224;-39
2024/04/11 05:04:37;;;;;;;4.30;1.77;;;;;;;;;;5434124;26;20224;-38
2024/04/11 05:07:03;;;;;;;4.10;1.65;;;;;;;;;;5427287;26;20225;-38
2024/04/11 05:09:29;;;;;;;3.20;1.58;;;;;;;;;;5439515;26;20219;-38
2024/04/11 05:11:55;;;;;;;3.67;1.60;;;;;;;;;;5443796;26;20263;-38
2024/04/11 05:14:23;;;;;;;3.90;1.83;;;;;;;;;;5429672;26;20240;-38
2024/04/11 05:16:50;;;;;;;3.13;1.70;;;;;;;;;;5448138;26;20321;-39
2024/04/11 05:19:17;;;;;;;3.30;1.48;;;;;;;;;;5454730;26;20308;-39
2024/04/11 05:21:43;;;;;;;2.60;1.42;;;;;;;;;;5442491;26;20284;-38
2024/04/11 05:24:09;;;;;;;3.40;1.38;;;;;;;;;;5421838;26;20591;-39
2024/04/11 05:26:35;;;;;;;2.83;1.38;;;;;;;;;;5433975;26;20302;-39
2024/04/11 05:29:01;;;;;;;3.05;1.10;;;;;;;;;;5447475;26;20223;-38
2024/04/11 05:31:28;;;;;;;2.15;1.08;;;;;;;;;;5433959;26;20243;-38
2024/04/11 05:33:55;;;;;;;3.00;1.33;;;;;;;;;;5447885;26;20670;-38
2024/04/11 05:36:25;;;;;;;4.00;1.40;;;;;;;;;;5424539;26;20300;-37
2024/04/11 05:38:51;;;;;;;2.78;1.40;;;;;;;;;;5447535;26;20227;-38
2024/04/11 05:41:17;;;;;;;2.08;1.20;;;;;;;;;;5438178;26;20313;-39
2024/04/11 05:43:44;;;;;;;2.63;1.20;;;;;;;;;;5419475;26;20275;-39
2024/04/11 05:46:13;;;;;;;2.15;1.20;;;;;;;;;;5454469;26;20224;-38
2024/04/11 05:48:40;;;;;;;2.20;1.27;;;;;;;;;;5422311;26;20270;-39
2024/04/11 05:51:06;;;;;;;2.17;1.17;;;;;;;;;;5423820;26;20504;-39
2024/04/11 05:53:36;;;;;;;1.42;1.33;;;;;;;;;;5445838;26;20244;-38
2024/04/11 05:56:03;;;;;;;1.17;1.08;;;;;;;;;;5439111;26;20644;-38
2024/04/11 05:58:29;;;;;;;2.15;1.40;;;;;;;;;;5441273;26;20227;-38
2024/04/11 06:00:56;;;;;;;2.30;1.00;;;;;;;;;;5436685;26;20255;-38
2024/04/11 06:03:22;;;;;;;2.85;1.20;;;;;;;;;;5436187;26;20446;-38
2024/04/11 06:05:48;;;;;;;2.40;1.10;;;;;;;;;;5445007;26;20275;-38
2024/04/11 06:08:14;;;;;;;2.30;1.40;;;;;;;;;;5442624;26;20228;-38
2024/04/11 06:10:40;;;;;;;2.63;1.20;;;;;;;;;;5446205;26;20668;-38
2024/04/11 06:13:06;;;;;;;1.90;1.00;;;;;;;;;;5435573;26;20224;-38
2024/04/11 06:15:34;;;;;;;1.95;1.00;;;;;;;;;;5435363;26;20279;-38
2024/04/11 06:18:09;;;;;;;2.55;1.50;;;;;;;;;;5448241;26;20514;-38
2024/04/11 06:20:35;;;;;;;2.63;1.27;;;;;;;;;;5435857;26;20219;-38
2024/04/11 06:23:08;;;;;;;1.75;1.23;;;;;;;;;;5447891;26;20262;-38
2024/04/11 06:25:35;;;;;;;2.22;1.17;;;;;;;;;;5438837;26;20278;-38
2024/04/11 06:28:01;;;;;;;2.30;1.25;;;;;;;;;;5447873;26;20224;-38
2024/04/11 06:30:27;;;;;;;2.97;1.63;;;;;;;;;;5443002;26;20543;-38
2024/04/11 06:32:54;;;;;;;2.38;1.30;;;;;;;;;;5427947;26;20284;-38
2024/04/11 06:35:20;;;;;;;3.03;1.45;;;;;;;;;;5437037;26;20223;-38
2024/04/11 06:37:46;;;;;;;1.15;1.05;;;;;;;;;;5446173;26;20272;-38
2024/04/11 06:40:12;;;;;;;1.20;1.08;;;;;;;;;;5435059;26;20314;-38
2024/04/11 06:42:46;;;;;;;2.33;1.15;;;;;;;;;;5453302;26;20223;-38
2024/04/11 06:45:14;;;;;;;2.03;1.48;;;;;;;;;;5437049;26;20607;-38
2024/04/11 06:47:40;;;;;;;2.25;1.15;;;;;;;;;;5435147;26;20224;-38
2024/04/11 06:50:07;;;;;;;1.40;1.30;;;;;;;;;;5441293;26;20350;-38
2024/04/11 06:52:32;;;;;;;2.70;1.17;;;;;;;;;;5439515;26;20232;-39
2024/04/11 06:54:58;;;;;;;1.60;1.23;;;;;;;;;;5450051;26;20235;-38
2024/04/11 06:57:26;;;;;;;2.95;1.40;;;;;;;;;;5441602;26;20604;-38
2024/04/11 06:59:52;;;;;;;2.15;1.17;;;;;;;;;;5440182;26;20224;-38
2024/04/11 07:02:18;;;;;;;2.55;1.10;;;;;;;;;;5437596;26;20287;-38
2024/04/11 07:04:44;;;;;;;2.05;1.48;;;;;;;;;;5443060;26;20334;-39
2024/04/11 07:07:10;;;;;;;1.73;1.10;;;;;;;;;;5453782;26;20602;-38
2024/04/11 07:09:39;;;;;;;1.17;1.00;;;;;;;;;;5423333;26;20322;-38
2024/04/11 07:12:28;;;;;;;1.38;1.10;;;;;;;;;;5433879;26;20235;-39
2024/04/11 07:14:54;;;;;;;1.60;1.02;;;;;;;;;;5429505;26;20241;-38
2024/04/11 07:17:20;;;;;;;1.33;1.00;;;;;;;;;;5433896;26;20219;-38
2024/04/11 07:19:46;;;;;;;2.28;1.20;;;;;;;;;;5434881;26;20694;-38
2024/04/11 07:22:18;;;;;;;2.85;1.30;;;;;;;;;;5430148;26;20308;-39
2024/04/11 07:24:44;;;;;;;1.27;1.17;;;;;;;;;;5436886;26;20270;-38
2024/04/11 07:27:11;;;;;;;1.48;1.27;;;;;;;;;;5435276;26;20903;-38
2024/04/11 07:29:38;;;;;;;2.17;1.40;;;;;;;;;;5451456;26;21189;-38
2024/04/11 07:32:05;;;;;;;1.25;1.00;;;;;;;;;;5445015;26;20225;-38
2024/04/11 07:34:31;;;;;;;1.60;1.30;;;;;;;;;;5439433;26;20638;-38
2024/04/11 07:36:57;;;;;;;1.33;1.08;;;;;;;;;;5445606;26;20233;-38
2024/04/11 07:39:23;;;;;;;1.35;1.08;;;;;;;;;;5440502;26;20224;-38
2024/04/11 07:42:00;;;;;;;1.65;0.95;;;;;;;;;;5442631;26;20270;-38
2024/04/11 07:44:26;;;;;;;1.77;1.02;;;;;;;;;;5438282;26;20307;-38
2024/04/11 07:46:53;;;;;;;1.63;1.10;;;;;;;;;;5441542;26;20283;-38
2024/04/11 07:49:19;;;;;;;1.13;1.02;;;;;;;;;;5454173;26;20266;-38
2024/04/11 07:51:45;;;;;;;1.13;1.00;;;;;;;;;;5440138;26;20439;-38
2024/04/11 07:54:15;;;;;;;1.73;1.20;;;;;;;;;;5440602;26;20649;-38
2024/04/11 07:56:41;;;;;;;1.52;1.25;;;;;;;;;;5440998;26;20257;-38
2024/04/11 07:59:11;;;;;;;2.70;1.10;;;;;;;;;;5444614;26;20220;-38
2024/04/11 08:01:37;;;;;;;2.20;0.90;;;;;;;;;;5439765;26;20275;-38
2024/04/11 08:04:04;;;;;;;2.42;1.02;;;;;;;;;;5431539;26;20228;-38
2024/04/11 08:06:34;;;;;;;1.75;1.20;;;;;;;;;;5437908;26;20231;-37
2024/04/11 08:09:00;;;;;;;1.63;1.10;;;;;;;;;;5455082;26;20224;-37
2024/04/11 08:11:30;;;;;;;3.25;1.42;;;;;;;;;;5452378;26;20224;-38
2024/04/11 08:13:57;;;;;;;1.20;1.10;;;;;;;;;;5451510;26;20308;-38
2024/04/11 08:16:23;;;;;;;1.27;1.13;;;;;;;;;;5434127;26;20262;-38
2024/04/11 08:18:49;;;;;;;2.08;1.20;;;;;;;;;;5439065;26;20223;-38
2024/04/11 08:21:16;;;;;;;1.48;1.17;;;;;;;;;;5454859;26;20278;-38
2024/04/11 08:23:49;;;;;;;0.93;0.88;;;;;;;;;;5450030;26;20627;-38
2024/04/11 08:26:15;;;;;;;1.25;1.10;;;;;;;;;;5435183;26;20291;-38
2024/04/11 08:28:43;;;;;;;2.53;0.90;;;;;;;;;;5452465;26;20485;-39
2024/04/11 08:31:09;;;;;;;1.98;1.02;;;;;;;;;;5444154;26;20228;-38
2024/04/11 08:33:38;;;;;;;1.77;0.90;;;;;;;;;;5449533;26;20282;-38
2024/04/11 08:36:05;;;;;;;1.17;1.08;;;;;;;;;;5454143;26;20270;-38
2024/04/11 08:38:34;;;;;;;1.50;1.20;;;;;;;;;;5453902;26;20509;-38
2024/04/11 08:41:10;;;;;;;0.70;0.70;;;;;;;;;;5454503;26;20223;-38
2024/04/11 08:43:36;;;;;;;1.00;0.90;;;;;;;;;;5452521;26;20273;-38
2024/04/11 08:46:08;;;;;;;1.10;1.00;;;;;;;;;;5433013;26;20807;-38
2024/04/11 08:48:35;;;;;;;2.00;1.20;;;;;;;;;;5439479;26;20231;-38
2024/04/11 08:51:09;;;;;;;1.10;0.90;;;;;;;;;;5443097;26;20320;-38
2024/04/11 08:53:36;;;;;;;0.80;0.80;;;;;;;;;;5440528;26;20318;-37
2024/04/11 08:56:03;;;;;;;1.38;1.00;;;;;;;;;;5449965;26;20316;-38
2024/04/11 08:58:29;;;;;;;1.00;0.88;;;;;;;;;;5439402;26;20220;-38
2024/04/11 09:00:59;;;;;;;1.92;1.00;;;;;;;;;;5428317;26;20223;-38
2024/04/11 09:03:26;;;;;;;1.27;0.90;;;;;;;;;;5444743;26;20219;-38
2024/04/11 09:05:52;;;;;;;2.20;1.02;;;;;;;;;;5430755;26;20259;-38
2024/04/11 09:08:19;;;;;;;2.03;0.93;;;;;;;;;;5442496;26;20232;-38
2024/04/11 09:10:45;;;;;;;1.63;1.00;;;;;;;;;;5453277;26;20254;-38
2024/04/11 09:13:15;;;;;;;1.08;0.90;;;;;;;;;;5444820;26;20224;-38
2024/04/11 09:15:41;;;;;;;0.88;0.80;;;;;;;;;;5429426;26;20220;-38
2024/04/11 09:18:07;;;;;;;1.05;0.95;;;;;;;;;;5441371;26;20274;-38
2024/04/11 09:20:34;;;;;;;0.77;0.77;;;;;;;;;;5450214;26;20295;-38
2024/04/11 09:23:01;;;;;;;0.82;0.82;;;;;;;;;;5424699;26;20305;-38
2024/04/11 09:25:29;;;;;;;1.08;0.65;;;;;;;;;;5435726;26;20270;-38
2024/04/11 09:28:00;;;;;;;1.10;1.10;;;;;;;;;;5458483;26;20299;-37
2024/04/11 09:30:29;;;;;;;1.33;1.05;;;;;;;;;;5439828;26;21108;-37
2024/04/11 09:33:03;;;;;;;1.00;0.90;;;;;;;;;;5445153;26;20270;-37
2024/04/11 09:35:32;;;;;;;1.15;0.73;;;;;;;;;;5448233;26;20227;-38
2024/04/11 09:37:59;;;;;;;2.35;1.02;;;;;;;;;;5452570;26;20316;-38
2024/04/11 09:40:33;;;;;;;0.73;0.73;;;;;;;;;;5444131;26;20717;-39
2024/04/11 09:43:06;;;;;;;1.45;0.70;;;;;;;;;;5431803;26;20228;-39
2024/04/11 09:45:35;;;;;;;1.00;0.82;;;;;;;;;;5432539;26;20287;-38
2024/04/11 09:48:03;;;;;;;0.70;0.70;;;;;;;;;;5432770;26;20244;-38
2024/04/11 09:50:30;;;;;;;0.93;0.77;;;;;;;;;;5444641;26;20589;-39
2024/04/11 09:52:57;;;;;;;1.83;0.93;;;;;;;;;;5434991;26;20819;-38
2024/04/11 09:55:33;;;;;;;0.80;0.70;;;;;;;;;;5440693;26;20220;-38
2024/04/11 09:57:59;;;;;;;0.77;0.77;;;;;;;;;;5428810;26;20605;-39
2024/04/11 10:03:18;;;;;;;1.23;0.90;;;;;;;;;;5425448;26;20273;-38
2024/04/11 10:05:50;;;;;;;0.80;0.80;;;;;;;;;;5444013;26;20317;-38
2024/04/11 10:08:33;;;;;;;1.40;0.70;;;;;;;;;;5453571;26;20503;-38
2024/04/11 10:11:03;;;;;;;1.48;0.73;;;;;;;;;;5428996;26;20630;-38
2024/04/11 10:13:38;;;;;;;1.15;0.70;;;;;;;;;;5438636;26;20225;-38
2024/04/11 10:16:05;;;;;;;0.90;0.75;;;;;;;;;;5444137;26;20235;-38
2024/04/11 10:18:45;;;;;;;1.60;0.70;;;;;;;;;;5452605;26;20227;-38
2024/04/11 10:21:12;;;;;;;0.70;0.70;;;;;;;;;;5438682;26;20223;-38
2024/04/11 10:23:38;;;;;;;1.33;0.90;;;;;;;;;;5422062;26;20491;-38
2024/04/11 10:26:06;;;;;;;0.63;0.63;;;;;;;;;;5440611;26;20485;-38
2024/04/11 10:28:41;;;;;;;1.85;0.93;;;;;;;;;;5454942;26;20227;-38
2024/04/11 10:31:17;;;;;;;1.42;0.70;;;;;;;;;;5434478;26;20270;-38
2024/04/11 10:33:59;;;;;;;1.20;0.82;;;;;;;;;;5423743;26;20228;-41
2024/04/11 10:36:32;;;;;;;0.80;0.65;;;;;;;;;;5430858;26;20254;-38
2024/04/11 10:38:58;;;;;;;0.82;0.80;;;;;;;;;;5416427;26;20228;-38
2024/04/11 10:41:24;;;;;;;1.85;0.85;;;;;;;;;;5441406;26;20228;-38
2024/04/11 10:43:55;;;;;;;2.35;0.80;;;;;;;;;;5435881;26;20243;-38
2024/04/11 10:46:22;;;;;;;2.95;0.82;;;;;;;;;;5444585;26;20294;-38
2024/04/11 10:48:49;;;;;;;1.38;1.10;;;;;;;;;;5440666;26;20270;-38
2024/04/11 10:51:15;;;;;;;1.42;0.90;;;;;;;;;;5455370;26;20223;-39
2024/04/11 10:53:54;;;;;;;1.13;0.90;;;;;;;;;;5454031;26;20223;-38
2024/04/11 10:56:21;;;;;;;0.70;0.70;;;;;;;;;;5444927;26;20308;-38
2024/04/11 10:58:47;;;;;;;1.58;0.80;;;;;;;;;;5439442;26;20274;-39
2024/04/11 11:01:14;;;;;;;2.00;0.70;;;;;;;;;;5435928;26;20227;-38
2024/04/11 11:03:46;;;;;;;1.65;0.88;;;;;;;;;;5443319;26;20247;-38
2024/04/11 11:06:13;;;;;;;0.70;0.70;;;;;;;;;;5437898;26;20239;-38
2024/04/11 11:08:42;;;;;;;2.35;1.00;;;;;;;;;;5452516;26;20237;-38
2024/04/11 11:11:11;;;;;;;1.25;0.70;;;;;;;;;;5434011;26;20220;-38
2024/04/11 11:13:40;;;;;;;1.00;0.90;;;;;;;;;;5438428;26;20304;-38
2024/04/11 11:16:07;;;;;;;0.73;0.73;;;;;;;;;;5430382;26;20346;-38
2024/04/11 11:18:34;;;;;;;3.88;0.90;;;;;;;;;;5448593;26;20254;-38
2024/04/11 11:21:00;;;;;;;2.28;1.02;;;;;;;;;;5431607;26;20365;-38
2024/04/11 11:23:33;;;;;;;0.80;0.80;;;;;;;;;;5444467;26;20236;-38
2024/04/11 11:25:59;;;;;;;1.00;0.60;;;;;;;;;;5438025;26;20240;-42
2024/04/11 11:28:28;;;;;;;0.95;0.80;;;;;;;;;;5455945;26;20305;-38
2024/04/11 11:30:56;;;;;;;0.52;0.52;;;;;;;;;;5439975;26;20316;-38
2024/04/11 11:33:23;;;;;;;1.67;0.70;;;;;;;;;;5435822;26;21165;-38
2024/04/11 11:35:50;;;;;;;1.40;0.70;;;;;;;;;;5433028;26;20650;-39
2024/04/11 11:38:16;;;;;;;2.35;0.80;;;;;;;;;;5430777;26;20848;-38
2024/04/11 11:40:46;;;;;;;1.27;0.77;;;;;;;;;;5447715;26;20219;-38
2024/04/11 11:43:16;;;;;;;1.70;0.60;;;;;;;;;;5418256;26;20236;-38
2024/04/11 11:46:17;;;;;;;1.50;0.93;;;;;;;;;;5434073;26;20264;-38
2024/04/11 11:48:31;;;;;;;1.42;1.05;;;;;;;;;;5434209;26;20228;-38
2024/04/11 11:51:05;;;;;;;1.70;0.75;;;;;;;;;;5448870;26;20442;-39
2024/04/11 11:53:45;;;;;;;0.88;0.65;;;;;;;;;;5448981;26;20283;-38
2024/04/11 11:56:12;;;;;;;3.50;0.80;;;;;;;;;;5447833;26;20223;-38
2024/04/11 11:58:43;;;;;;;0.88;0.68;;;;;;;;;;5427614;26;20728;-38
2024/04/11 12:01:28;;;;;;;0.82;0.80;;;;;;;;;;5433189;26;20231;-38
2024/04/11 12:03:55;;;;;;;0.98;0.88;;;;;;;;;;5434933;26;20305;-38
2024/04/11 12:06:21;;;;;;;2.33;0.90;;;;;;;;;;5443175;26;20265;-39
2024/04/11 12:08:47;;;;;;;2.80;1.00;;;;;;;;;;5440907;26;20259;-39
2024/04/11 12:11:14;;;;;;;4.88;0.95;;;;;;;;;;5449566;26;20271;-38
2024/04/11 12:13:51;;;;;;;5.65;0.88;;;;;;;;;;5433585;26;20228;-39
2024/04/11 12:16:17;;;;;;;3.38;1.05;;;;;;;;;;5426690;26;20235;-38
2024/04/11 12:18:43;;;;;;;1.30;0.75;;;;;;;;;;5439400;26;20246;-38
2024/04/11 12:21:26;;;;;;;3.92;0.80;;;;;;;;;;5438339;26;20221;-38
2024/04/11 12:23:52;;;;;;;2.25;1.00;;;;;;;;;;5445393;26;20304;-38
2024/04/11 12:26:18;;;;;;;2.30;1.00;;;;;;;;;;5428911;26;20311;-38
2024/04/11 12:28:45;;;;;;;2.03;0.77;;;;;;;;;;5432954;26;20232;-39
2024/04/11 12:31:15;;;;;;;0.88;0.85;;;;;;;;;;5451872;26;20224;-39
2024/04/11 12:33:45;;;;;;;3.25;1.10;;;;;;;;;;5451154;26;20235;-38
2024/04/11 12:36:42;;;;;;;1.83;0.75;;;;;;;;;;5447746;26;20725;-38
2024/04/11 12:39:12;;;;;;;2.05;0.80;;;;;;;;;;5434577;26;20233;-39
2024/04/11 12:41:40;;;;;;;1.35;0.93;;;;;;;;;;5446654;26;20277;-39
2024/04/11 12:44:11;;;;;;;2.25;0.82;;;;;;;;;;5428834;26;20228;-39
2024/04/11 12:46:37;;;;;;;1.70;0.85;;;;;;;;;;5419438;26;20526;-39
2024/04/11 12:49:10;;;;;;;2.10;0.70;;;;;;;;;;5448126;26;20223;-39
2024/04/11 12:51:36;;;;;;;0.90;0.80;;;;;;;;;;5438316;26;20227;-38
2024/04/11 12:54:03;;;;;;;1.40;0.90;;;;;;;;;;5453114;26;20227;-38
2024/04/11 12:56:33;;;;;;;1.98;0.80;;;;;;;;;;5451869;26;20274;-39
2024/04/11 12:59:05;;;;;;;2.60;1.00;;;;;;;;;;5432807;26;20324;-39
2024/04/11 13:01:32;;;;;;;1.70;0.73;;;;;;;;;;5427944;26;20235;-39
2024/04/11 13:03:58;;;;;;;2.65;0.80;;;;;;;;;;5437113;26;20291;-39
2024/04/11 13:06:30;;;;;;;0.85;0.70;;;;;;;;;;5441046;26;20220;-39
2024/04/11 13:09:00;;;;;;;4.30;1.00;;;;;;;;;;5438208;26;20261;-38
2024/04/11 13:11:37;;;;;;;2.58;0.80;;;;;;;;;;5438436;26;20274;-38
2024/04/11 13:14:10;;;;;;;1.10;0.70;;;;;;;;;;5450326;26;20587;-39
2024/04/11 13:16:36;;;;;;;1.83;0.70;;;;;;;;;;5434512;26;20318;-38
2024/04/11 13:19:05;;;;;;;1.52;0.82;;;;;;;;;;5437436;26;20220;-39
2024/04/11 13:21:38;;;;;;;1.58;0.68;;;;;;;;;;5444417;26;20271;-39
2024/04/11 13:24:10;;;;;;;1.45;0.77;;;;;;;;;;5445440;26;20274;-39
2024/04/11 13:26:46;;;;;;;1.23;0.77;;;;;;;;;;5433778;26;20458;-39
2024/04/11 13:29:17;;;;;;;0.70;0.70;;;;;;;;;;5453347;26;20338;-38
2024/04/11 13:31:45;;;;;;;2.88;0.80;;;;;;;;;;5429271;26;20575;-38
2024/04/11 13:34:19;;;;;;;2.47;0.80;;;;;;;;;;5441031;26;20224;-39
2024/04/11 13:36:48;;;;;;;2.40;0.70;;;;;;;;;;5452705;26;20321;-39
2024/04/11 13:39:17;;;;;;;0.93;0.70;;;;;;;;;;5452850;26;20618;-39
2024/04/11 13:41:49;;;;;;;3.75;0.73;;;;;;;;;;5452307;26;20273;-40
2024/04/11 13:44:22;;;;;;;1.10;0.70;;;;;;;;;;5424869;26;20232;-39
2024/04/11 13:46:50;;;;;;;0.85;0.65;;;;;;;;;;5438667;26;21131;-39
2024/04/11 13:49:30;;;;;;;1.60;0.47;;;;;;;;;;5445344;26;20269;-39
2024/04/11 13:51:56;;;;;;;1.38;0.90;;;;;;;;;;5430438;26;20228;-39
2024/04/11 13:54:31;;;;;;;2.33;0.70;;;;;;;;;;5424354;26;20650;-38
2024/04/11 13:57:00;;;;;;;1.75;0.73;;;;;;;;;;5451486;26;20293;-39
2024/04/11 13:59:28;;;;;;;1.38;0.90;;;;;;;;;;5452161;26;20261;-39
2024/04/11 14:01:59;;;;;;;2.63;0.70;;;;;;;;;;5438283;26;20278;-38
2024/04/11 14:04:44;;;;;;;2.08;0.77;;;;;;;;;;5445498;26;20227;-39
2024/04/11 14:07:11;;;;;;;0.82;0.70;;;;;;;;;;5439267;26;20232;-39
2024/04/11 14:09:41;;;;;;;2.13;0.60;;;;;;;;;;5430359;26;20275;-39
2024/04/11 14:12:10;;;;;;;1.33;0.65;;;;;;;;;;5434135;26;20231;-39
2024/04/11 14:14:36;;;;;;;1.48;0.55;;;;;;;;;;5435262;26;20289;-38
2024/04/11 14:17:06;;;;;;;1.00;0.60;;;;;;;;;;5439387;26;20221;-38
2024/04/11 14:19:51;;;;;;;0.82;0.60;;;;;;;;;;5442803;26;20454;-38
2024/04/11 14:25:29;;;;;;;0.80;0.77;;;;;;;;;;5439831;26;20267;-39
2024/04/11 14:27:38;;;;;;;0.95;0.52;;;;;;;;;;5432119;26;20231;-39
2024/04/11 14:30:04;;;;;;;1.33;0.70;;;;;;;;;;5440270;26;20229;-39
2024/04/11 14:34:19;;;;;;;2.22;0.57;;;;;;;;;;5426120;26;20538;-39
2024/04/11 14:37:56;;;;;;;1.95;0.60;;;;;;;;;;5445300;26;20267;-39
2024/04/11 14:40:25;;;;;;;3.95;0.73;;;;;;;;;;5438819;26;20494;-39
2024/04/11 14:42:53;;;;;;;1.67;0.60;;;;;;;;;;5444151;26;20223;-39
2024/04/11 14:45:22;;;;;;;2.05;0.60;;;;;;;;;;5436347;26;20478;-38
2024/04/11 14:47:48;;;;;;;3.00;0.60;;;;;;;;;;5431396;26;20278;-38
2024/04/11 14:50:18;;;;;;;0.80;0.60;;;;;;;;;;5455222;26;20231;-39
2024/04/11 14:52:44;;;;;;;0.82;0.60;;;;;;;;;;5441163;26;20223;-39
2024/04/11 14:55:10;;;;;;;3.28;0.70;;;;;;;;;;5440153;26;20223;-38
2024/04/11 14:57:37;;;;;;;3.08;1.33;;;;;;;;;;5432508;26;20264;-38